Time;durP1;ratioP1;P1;durP2;ratioP2;P2;SDS_P1;SDS_P2;PMS_P1;PMS_P2;Temp;Humidity;BMP_temperature;BMP_pressure;BME280_temperature;BME280_humidity;BME280_pressure;Samples;Min_cycle;Max_cycle;Signal;HPM_P1;HPM_P2
2021/07/15 13:36:58;;;;;;;4.87;1.03;;;26.20;97.80;;;;;;5481066;23;20774;-96
2021/07/15 13:39:52;;;;;;;2.53;1.20;;;26.50;99.90;;;;;;4871544;29;20436;-94
2021/07/15 13:42:29;;;;;;;2.10;1.38;;;25.90;99.40;;;;;;4865736;29;20436;-94
2021/07/15 13:44:57;;;;;;;1.30;1.20;;;25.10;99.90;;;;;;4874769;29;20443;-92
2021/07/15 13:47:28;;;;;;;1.85;1.00;;;24.70;99.90;;;;;;4896861;23;20541;-94
2021/07/15 13:50:19;;;;;;;1.10;1.00;;;25.30;99.90;;;;;;4894055;29;20427;-96
2021/07/15 13:52:46;;;;;;;2.47;1.00;;;25.60;94.30;;;;;;4892175;29;20435;-94
2021/07/15 13:55:16;;;;;;;2.03;1.20;;;25.60;97.50;;;;;;4894585;29;20442;-96
2021/07/15 13:57:49;;;;;;;2.88;1.00;;;26.00;98.40;;;;;;4892523;29;20419;-94
2021/07/15 14:00:19;;;;;;;2.65;1.00;;;26.50;93.00;;;;;;4889464;29;20442;-94
2021/07/15 14:02:48;;;;;;;1.25;0.90;;;26.50;94.00;;;;;;4887745;29;20435;-93
2021/07/15 14:05:25;;;;;;;1.35;0.90;;;26.70;90.10;;;;;;4873226;29;20466;-93
2021/07/15 14:07:53;;;;;;;3.20;1.00;;;27.10;94.30;;;;;;4888815;29;20530;-95
2021/07/15 14:10:20;;;;;;;1.75;1.00;;;28.00;95.50;;;;;;4903808;29;20415;-93
2021/07/15 14:12:48;;;;;;;4.30;1.40;;;28.60;94.80;;;;;;4897098;29;20442;-96
2021/07/15 14:15:37;;;;;;;1.30;1.00;;;28.60;94.80;;;;;;4899353;29;20431;-96
2021/07/15 14:55:27;;;;;;;1.88;0.90;;;25.70;86.00;;;;;;5010472;23;20528;-96
2021/07/15 14:57:55;;;;;;;1.70;0.90;;;24.70;89.00;;;;;;4868372;29;20432;-95
2021/07/15 15:00:22;;;;;;;4.07;0.90;;;23.80;89.60;;;;;;4867635;29;20446;-96
2021/07/15 15:03:02;;;;;;;1.65;1.00;;;23.40;92.90;;;;;;4869614;29;20431;-96
2021/07/15 15:05:34;;;;;;;1.58;0.90;;;23.00;94.10;;;;;;4872385;29;20473;-96
2021/07/15 15:08:04;;;;;;;1.10;0.90;;;22.80;95.20;;;;;;4839193;29;20460;-95
2021/07/15 15:10:33;;;;;;;1.83;0.93;;;22.40;96.60;;;;;;4870317;29;20443;-96
2021/07/15 15:13:13;;;;;;;1.50;1.00;;;22.30;99.80;;;;;;4870646;29;20444;-93
2021/07/15 15:16:05;;;;;;;2.83;0.90;;;22.20;96.70;;;;;;4881193;29;20443;-94
2021/07/15 15:18:57;;;;;;;1.48;1.00;;;22.30;98.10;;;;;;5066955;23;20468;-96
2021/07/15 15:21:27;;;;;;;2.00;0.90;;;22.30;99.70;;;;;;4875555;29;20920;-95
2021/07/15 15:24:39;;;;;;;2.57;1.20;;;22.60;99.90;;;;;;4862184;29;20739;-94
2021/07/15 15:27:32;;;;;;;2.10;1.10;;;22.80;99.10;;;;;;5115564;23;20420;-93
2021/07/15 15:33:37;;;;;;;1.75;1.10;;;23.20;97.10;;;;;;4900269;23;20446;-96
2021/07/15 15:45:28;;;;;;;2.92;1.40;;;25.60;93.00;;;;;;5901191;23;20411;-94
2021/07/15 15:51:53;;;;;;;3.13;1.33;;;26.30;95.10;;;;;;934984;23;21412;-96
2021/07/15 15:54:23;;;;;;;2.15;1.35;;;25.80;92.60;;;;;;4896466;29;20554;-94
2021/07/15 15:57:08;;;;;;;2.20;1.27;;;24.60;96.00;;;;;;4869676;29;20425;-96
2021/07/15 15:59:38;;;;;;;1.50;1.40;;;24.10;96.80;;;;;;4870749;29;20508;-96
2021/07/15 16:02:08;;;;;;;2.70;1.23;;;23.80;98.50;;;;;;4870928;29;20464;-96
2021/07/15 16:05:17;;;;;;;4.97;1.40;;;23.80;99.90;;;;;;4869020;29;20447;-96
2021/07/15 16:08:13;;;;;;;4.23;1.50;;;23.70;97.00;;;;;;4873739;29;20905;-96
2021/07/15 16:10:55;;;;;;;;;;;;;;;;;;;;;
2021/07/15 16:14:00;;;;;;;4.25;1.50;;;22.90;99.60;;;;;;5045287;23;20450;-95
2021/07/15 16:16:41;;;;;;;4.03;1.40;;;22.80;99.40;;;;;;4858898;29;20902;-96
2021/07/15 16:19:22;;;;;;;2.10;1.20;;;22.80;99.90;;;;;;4855057;29;20414;-93
2021/07/15 16:21:50;;;;;;;2.88;1.40;;;22.60;99.60;;;;;;4835527;29;20517;-96
2021/07/15 16:24:19;;;;;;;3.60;1.30;;;22.30;99.90;;;;;;4848861;29;20467;-96
2021/07/15 16:58:34;;;;;;;5.72;0.90;;;24.20;95.00;;;;;;1623873;23;20705;-96
2021/07/15 17:01:08;;;;;;;2.50;0.87;;;23.80;96.00;;;;;;4857213;29;20521;-94
2021/07/15 17:03:38;;;;;;;1.20;0.70;;;23.30;95.30;;;;;;4830658;29;20514;-96
2021/07/15 17:06:09;;;;;;;2.35;0.85;;;23.20;95.70;;;;;;4846814;29;20463;-95
2021/07/15 17:08:52;;;;;;;2.30;0.85;;;23.20;96.40;;;;;;4832681;29;20611;-96
2021/07/15 17:11:25;;;;;;;1.13;0.60;;;23.20;96.80;;;;;;4834374;29;20440;-95
2021/07/15 17:13:52;;;;;;;1.63;0.63;;;22.80;97.80;;;;;;4828364;29;20486;-95
2021/07/15 17:16:20;;;;;;;2.50;0.60;;;22.60;99.20;;;;;;4829349;29;20436;-96
2021/07/15 17:18:47;;;;;;;1.40;0.70;;;22.30;99.90;;;;;;4830307;29;20451;-96
2021/07/15 17:21:18;;;;;;;1.10;0.52;;;22.20;99.70;;;;;;4830583;29;20819;-96
2021/07/15 17:23:49;;;;;;;2.30;0.70;;;22.10;99.90;;;;;;4832458;29;20444;-95
2021/07/15 17:26:19;;;;;;;1.70;0.80;;;22.20;99.90;;;;;;4835013;29;20440;-96
2021/07/15 17:29:02;;;;;;;3.15;0.70;;;22.00;99.90;;;;;;4836014;29;20603;-96
2021/07/15 17:31:49;;;;;;;8.02;0.77;;;21.70;99.90;;;;;;4838917;29;20443;-96
2021/07/15 17:34:18;;;;;;;2.80;0.70;;;21.60;99.90;;;;;;4847012;29;20435;-96
2021/07/15 17:36:50;;;;;;;2.20;0.60;;;21.70;99.90;;;;;;4862550;29;20444;-96
2021/07/15 17:39:30;;;;;;;1.42;0.68;;;22.00;99.90;;;;;;4851177;23;20598;-96
2021/07/15 17:42:14;;;;;;;1.20;0.65;;;22.50;99.90;;;;;;4858358;29;20537;-96
2021/07/15 17:44:43;;;;;;;1.02;0.70;;;22.50;99.90;;;;;;4863745;29;20845;-96
2021/07/15 17:47:11;;;;;;;1.27;0.70;;;22.10;99.90;;;;;;4861822;29;20434;-95
2021/07/15 17:49:41;;;;;;;2.77;0.80;;;22.00;99.90;;;;;;4865739;29;20438;-96
2021/07/15 17:52:09;;;;;;;2.00;0.70;;;22.10;99.90;;;;;;4865217;29;20490;-96
2021/07/15 17:54:54;;;;;;;1.38;0.70;;;22.20;99.90;;;;;;4868153;29;20453;-96
2021/07/15 17:57:27;;;;;;;1.63;0.70;;;22.50;99.90;;;;;;4869327;29;20430;-93
2021/07/15 17:59:56;;;;;;;1.13;0.77;;;22.50;99.90;;;;;;4853979;29;20505;-96
2021/07/15 18:02:23;;;;;;;1.50;0.63;;;22.40;99.90;;;;;;4863903;29;20466;-94
2021/07/15 18:04:51;;;;;;;2.65;0.80;;;22.00;99.90;;;;;;4864160;29;20438;-96
2021/07/15 18:07:18;;;;;;;7.10;1.00;;;21.70;99.90;;;;;;4864371;29;20990;-94
2021/07/15 18:09:47;;;;;;;1.90;0.73;;;21.40;99.90;;;;;;4867517;29;20560;-96
2021/07/15 18:12:24;;;;;;;2.60;0.65;;;20.90;99.90;;;;;;4864940;29;20458;-94
2021/07/15 18:14:57;;;;;;;1.67;0.70;;;20.30;99.90;;;;;;4864018;29;20446;-94
2021/07/15 18:17:53;;;;;;;2.50;0.80;;;19.90;99.90;;;;;;5070653;23;20453;-96
2021/07/15 18:35:25;;;;;;;2.78;1.00;;;18.10;99.90;;;;;;4899086;23;20449;-96
2021/07/15 18:41:08;;;;;;;1.88;0.70;;;17.60;99.90;;;;;;4991274;23;20837;-96
2021/07/15 18:44:17;;;;;;;2.40;0.88;;;17.40;99.90;;;;;;4956922;23;20406;-96
2021/07/15 18:46:44;;;;;;;1.75;0.95;;;17.30;99.90;;;;;;4874290;29;20535;-96
2021/07/15 18:49:27;;;;;;;2.20;1.00;;;17.20;99.90;;;;;;4886142;29;20966;-96
